createdAt,value
2023-04-16T00:02:18.145Z,8.85
2023-04-16T00:04:45.982Z,8.81
2023-04-16T00:07:13.770Z,8.81
2023-04-16T00:09:41.163Z,8.79
2023-04-16T00:12:08.907Z,8.77
2023-04-16T00:14:36.300Z,8.84
2023-04-16T00:17:03.772Z,8.84
2023-04-16T00:19:31.279Z,8.86
2023-04-16T00:21:58.984Z,8.90
2023-04-16T00:24:26.448Z,8.85
2023-04-16T00:26:53.830Z,8.84
2023-04-16T00:29:21.153Z,8.93
2023-04-16T00:31:48.579Z,8.92
2023-04-16T00:34:16.062Z,8.90
2023-04-16T00:36:43.617Z,8.89
2023-04-16T00:39:11.237Z,8.93
2023-04-16T00:41:39.054Z,8.93
2023-04-16T00:44:06.488Z,8.89
2023-04-16T00:46:35.111Z,8.85
2023-04-16T00:49:03.187Z,8.84
2023-04-16T00:51:31.912Z,8.77
2023-04-16T00:53:59.414Z,8.73
2023-04-16T00:56:27.222Z,8.68
2023-04-16T00:58:56.767Z,8.61
2023-04-16T01:01:24.291Z,8.56
2023-04-16T01:03:52.255Z,8.53
2023-04-16T01:06:20.078Z,8.53
2023-04-16T01:08:48.891Z,8.54
2023-04-16T01:11:16.510Z,8.58
2023-04-16T01:13:43.918Z,8.65
2023-04-16T01:16:13.040Z,8.66
2023-04-16T01:18:40.699Z,8.71
2023-04-16T01:21:08.287Z,8.82
2023-04-16T01:23:35.704Z,8.86
2023-04-16T01:26:03.186Z,8.94
2023-04-16T01:28:30.444Z,8.80
2023-04-16T01:30:57.937Z,8.81
2023-04-16T01:33:43.007Z,8.74
2023-04-16T01:36:12.601Z,8.66
2023-04-16T01:38:40.061Z,8.62
2023-04-16T01:41:07.612Z,8.64
2023-04-16T01:43:36.094Z,8.62
2023-04-16T01:46:24.220Z,8.62
2023-04-16T01:48:54.827Z,8.61
2023-04-16T01:51:22.512Z,8.59
2023-04-16T01:53:51.034Z,8.63
2023-04-16T01:56:18.742Z,8.63
2023-04-16T01:58:47.268Z,8.61
2023-04-16T02:01:16.396Z,8.61
2023-04-16T02:03:45.367Z,8.56
2023-04-16T02:06:13.117Z,8.60
2023-04-16T02:08:41.643Z,8.55
2023-04-16T02:11:09.396Z,8.60
2023-04-16T02:13:37.415Z,8.56
2023-04-16T02:16:05.911Z,8.58
2023-04-16T02:18:50.524Z,8.54
2023-04-16T02:21:21.181Z,8.50
2023-04-16T02:23:52.100Z,8.51
2023-04-16T02:26:26.599Z,8.50
2023-04-16T02:28:56.229Z,8.43
2023-04-16T02:31:28.994Z,8.44
2023-04-16T02:33:58.245Z,8.41
2023-04-16T02:36:25.749Z,8.35
2023-04-16T02:38:55.452Z,8.35
2023-04-16T02:41:23.073Z,8.30
2023-04-16T02:43:50.800Z,8.24
2023-04-16T02:46:18.282Z,8.17
2023-04-16T02:48:45.931Z,8.18
2023-04-16T02:51:13.653Z,8.14
2023-04-16T02:53:41.684Z,8.10
2023-04-16T02:56:09.113Z,8.09
2023-04-16T02:58:36.862Z,8.05
2023-04-16T03:01:04.659Z,8.04
2023-04-16T03:03:32.211Z,8.03
2023-04-16T03:05:59.664Z,8.00
2023-04-16T03:08:27.639Z,7.96
2023-04-16T03:10:55.240Z,7.96
2023-04-16T03:13:22.798Z,7.95
2023-04-16T03:15:50.244Z,7.96
2023-04-16T03:18:17.884Z,7.91
2023-04-16T03:20:45.540Z,7.89
2023-04-16T03:23:13.218Z,7.83
2023-04-16T03:25:40.890Z,7.85
2023-04-16T03:28:09.791Z,7.86
2023-04-16T03:30:38.673Z,7.78
2023-04-16T03:33:07.180Z,7.72
2023-04-16T03:35:35.433Z,7.72
2023-04-16T03:38:03.599Z,7.68
2023-04-16T03:40:31.062Z,7.65
2023-04-16T03:42:59.871Z,7.56
2023-04-16T03:45:28.435Z,7.56
2023-04-16T03:47:56.305Z,7.58
2023-04-16T03:50:26.282Z,7.59
2023-04-16T03:52:53.971Z,7.60
2023-04-16T03:55:21.534Z,7.55
2023-04-16T03:57:48.981Z,7.59
2023-04-16T04:00:17.394Z,7.51
2023-04-16T04:03:05.010Z,7.50
2023-04-16T04:05:42.878Z,7.54
2023-04-16T04:08:11.972Z,7.52
2023-04-16T04:10:39.451Z,7.52
2023-04-16T04:13:08.059Z,7.52
2023-04-16T04:15:36.723Z,7.52
2023-04-16T04:18:04.342Z,7.47
2023-04-16T04:20:31.923Z,7.47
2023-04-16T04:22:59.412Z,7.47
2023-04-16T04:25:27.622Z,7.46
2023-04-16T04:27:55.066Z,7.47
2023-04-16T04:30:22.937Z,7.49
2023-04-16T04:32:50.809Z,7.46
2023-04-16T04:35:18.416Z,7.37
2023-04-16T04:37:48.073Z,7.35
2023-04-16T04:40:19.450Z,7.36
2023-04-16T04:42:47.084Z,7.32
2023-04-16T04:45:14.488Z,7.26
2023-04-16T04:47:42.423Z,7.20
2023-04-16T04:50:10.249Z,7.15
2023-04-16T04:52:38.476Z,7.14
2023-04-16T04:55:07.460Z,7.14
2023-04-16T04:57:35.946Z,7.07
2023-04-16T05:00:05.316Z,7.07
2023-04-16T05:02:40.884Z,7.12
2023-04-16T05:05:09.076Z,7.13
2023-04-16T05:07:36.526Z,7.12
2023-04-16T05:10:03.958Z,7.14
2023-04-16T05:12:31.600Z,7.24
2023-04-16T05:14:59.065Z,7.24
2023-04-16T05:17:26.316Z,7.20
2023-04-16T05:19:53.518Z,7.17
2023-04-16T05:22:20.857Z,7.15
2023-04-16T05:24:48.410Z,7.16
2023-04-16T05:27:16.348Z,7.22
2023-04-16T05:29:43.850Z,7.15
2023-04-16T05:32:11.373Z,7.19
2023-04-16T05:34:38.741Z,7.23
2023-04-16T05:37:06.282Z,7.20
2023-04-16T05:39:33.754Z,7.19
2023-04-16T05:42:01.158Z,7.17
2023-04-16T05:44:28.588Z,7.23
2023-04-16T05:46:55.868Z,7.29
2023-04-16T05:49:23.287Z,7.35
2023-04-16T05:51:51.078Z,7.47
2023-04-16T05:54:18.736Z,7.61
2023-04-16T05:56:46.185Z,7.76
2023-04-16T05:59:13.568Z,7.96
2023-04-16T06:01:41.460Z,8.63
2023-04-16T06:04:09.159Z,9.69
2023-04-16T06:06:37.586Z,10.94
2023-04-16T06:09:05.192Z,12.17
2023-04-16T06:11:34.581Z,13.19
2023-04-16T06:14:03.838Z,13.98
2023-04-16T06:16:31.180Z,14.66
2023-04-16T06:18:58.562Z,15.21
2023-04-16T06:21:26.791Z,15.83
2023-04-16T06:23:56.298Z,16.30
2023-04-16T06:26:23.729Z,16.52
2023-04-16T06:28:51.241Z,16.58
2023-04-16T06:31:18.686Z,16.82
2023-04-16T06:33:46.180Z,17.37
2023-04-16T06:36:13.699Z,18.00
2023-04-16T06:38:41.119Z,18.57
2023-04-16T06:41:08.587Z,19.15
2023-04-16T06:43:36.170Z,19.71
2023-04-16T06:46:03.515Z,20.18
2023-04-16T06:48:39.215Z,20.56
2023-04-16T06:51:07.222Z,20.80
2023-04-16T06:53:39.485Z,20.91
2023-04-16T06:56:08.017Z,20.89
2023-04-16T06:58:35.812Z,20.80
2023-04-16T07:01:03.855Z,20.92
2023-04-16T07:03:32.121Z,21.18
2023-04-16T07:06:00.376Z,21.43
2023-04-16T07:08:27.966Z,21.66
2023-04-16T07:10:55.554Z,21.93
2023-04-16T07:13:22.977Z,21.93
2023-04-16T07:15:50.544Z,21.37
2023-04-16T07:18:19.285Z,20.59
2023-04-16T07:20:48.253Z,19.79
2023-04-16T07:23:15.729Z,19.12
2023-04-16T07:25:43.233Z,18.72
2023-04-16T07:28:10.812Z,18.77
2023-04-16T07:30:38.577Z,19.27
2023-04-16T07:33:12.803Z,20.03
2023-04-16T07:35:40.558Z,20.64
2023-04-16T07:38:07.961Z,20.85
2023-04-16T07:40:36.882Z,20.97
2023-04-16T07:43:04.406Z,21.16
2023-04-16T07:45:31.905Z,21.61
2023-04-16T07:47:59.355Z,22.23
2023-04-16T07:50:26.902Z,22.65
2023-04-16T07:52:54.312Z,22.90
2023-04-16T07:55:21.900Z,22.74
2023-04-16T07:57:49.427Z,22.65
2023-04-16T08:00:16.997Z,22.60
2023-04-16T08:02:44.816Z,22.55
2023-04-16T08:05:13.323Z,22.52
2023-04-16T08:07:41.087Z,22.40
2023-04-16T08:10:09.288Z,21.60
2023-04-16T08:12:36.870Z,20.75
2023-04-16T08:15:05.062Z,20.31
2023-04-16T08:17:34.538Z,19.78
2023-04-16T08:20:02.109Z,19.63
2023-04-16T08:22:29.525Z,19.61
2023-04-16T08:24:56.994Z,19.81
2023-04-16T08:27:24.398Z,20.09
2023-04-16T08:29:51.887Z,20.41
2023-04-16T08:32:19.569Z,20.81
2023-04-16T08:34:47.084Z,21.05
2023-04-16T08:37:14.643Z,21.25
2023-04-16T08:39:42.299Z,20.86
2023-04-16T08:42:19.109Z,20.80
2023-04-16T08:44:49.268Z,21.04
2023-04-16T08:47:16.903Z,21.23
2023-04-16T08:49:48.840Z,20.84
2023-04-16T08:52:20.446Z,20.40
2023-04-16T08:55:26.224Z,20.06
2023-04-16T08:58:00.533Z,19.88
2023-04-16T09:00:31.780Z,20.09
2023-04-16T09:02:59.430Z,20.43
2023-04-16T09:05:29.367Z,20.89
2023-04-16T09:07:57.233Z,21.27
2023-04-16T09:10:27.081Z,21.53
2023-04-16T09:12:57.900Z,21.43
2023-04-16T09:15:26.275Z,21.61
2023-04-16T09:17:54.530Z,21.85
2023-04-16T09:20:22.161Z,21.96
2023-04-16T09:22:49.739Z,21.77
2023-04-16T09:25:17.487Z,21.73
2023-04-16T09:27:46.316Z,21.83
2023-04-16T09:30:28.166Z,22.16
2023-04-16T09:33:22.576Z,22.66
2023-04-16T09:35:52.772Z,22.95
2023-04-16T09:38:21.255Z,22.92
2023-04-16T09:40:48.745Z,23.01
2023-04-16T09:43:19.345Z,22.85
2023-04-16T09:45:55.290Z,22.46
2023-04-16T09:48:33.378Z,22.21
2023-04-16T09:51:01.856Z,22.31
2023-04-16T09:53:31.307Z,22.59
2023-04-16T09:56:00.460Z,22.96
2023-04-16T09:58:28.647Z,23.17
2023-04-16T10:01:07.458Z,23.48
2023-04-16T10:03:37.069Z,23.74
2023-04-16T10:06:08.084Z,23.70
2023-04-16T10:08:36.285Z,23.69
2023-04-16T10:11:03.854Z,23.71
2023-04-16T10:13:32.461Z,23.90
2023-04-16T10:16:00.454Z,24.04
2023-04-16T10:18:28.938Z,24.21
2023-04-16T10:20:57.940Z,24.36
2023-04-16T10:23:26.708Z,24.48
2023-04-16T10:25:57.530Z,24.49
2023-04-16T10:28:25.495Z,24.41
2023-04-16T10:30:53.821Z,24.53
2023-04-16T10:33:23.631Z,24.64
2023-04-16T10:36:01.350Z,24.90
2023-04-16T10:38:35.498Z,25.04
2023-04-16T10:41:05.142Z,25.17
2023-04-16T10:43:38.584Z,25.27
2023-04-16T10:46:33.758Z,24.72
2023-04-16T10:49:03.095Z,24.56
2023-04-16T10:51:35.532Z,24.64
2023-04-16T10:54:04.948Z,24.66
2023-04-16T10:56:33.702Z,24.38
2023-04-16T10:59:01.754Z,23.94
2023-04-16T11:01:37.736Z,23.32
2023-04-16T11:04:20.764Z,22.98
2023-04-16T11:07:18.659Z,22.95
2023-04-16T11:10:05.490Z,23.11
2023-04-16T11:12:38.288Z,23.10
2023-04-16T11:15:06.457Z,23.19
2023-04-16T11:17:39.297Z,23.30
2023-04-16T11:20:20.894Z,23.50
2023-04-16T11:22:50.136Z,23.48
2023-04-16T11:25:25.275Z,22.85
2023-04-16T11:27:53.814Z,22.23
2023-04-16T11:30:35.122Z,21.80
2023-04-16T11:33:03.920Z,21.54
2023-04-16T11:35:32.420Z,21.58
2023-04-16T11:38:00.076Z,21.65
2023-04-16T11:40:34.136Z,21.52
2023-04-16T11:43:04.076Z,21.41
2023-04-16T11:45:31.608Z,21.44
2023-04-16T11:47:59.174Z,21.49
2023-04-16T11:50:28.716Z,21.63
2023-04-16T11:52:58.143Z,21.75
2023-04-16T11:55:25.567Z,21.93
2023-04-16T11:57:53.156Z,21.99
2023-04-16T12:00:23.020Z,22.13
2023-04-16T12:02:54.245Z,22.12
2023-04-16T12:05:36.069Z,22.25
2023-04-16T12:08:08.759Z,22.44
2023-04-16T12:10:52.415Z,22.43
2023-04-16T12:13:20.139Z,22.46
2023-04-16T12:15:49.018Z,22.49
2023-04-16T12:18:22.573Z,22.51
2023-04-16T12:20:53.471Z,22.28
2023-04-16T12:23:29.507Z,22.11
2023-04-16T12:26:02.786Z,22.14
2023-04-16T12:28:33.845Z,22.33
2023-04-16T12:31:02.510Z,22.55
2023-04-16T12:33:30.148Z,22.66
2023-04-16T12:35:57.853Z,22.59
2023-04-16T12:38:26.415Z,22.72
2023-04-16T12:40:57.120Z,22.83
2023-04-16T12:43:25.368Z,22.52
2023-04-16T12:45:52.854Z,22.11
2023-04-16T12:48:24.519Z,21.75
2023-04-16T12:50:56.958Z,21.64
2023-04-16T12:53:25.776Z,21.24
2023-04-16T12:55:53.349Z,20.86
2023-04-16T12:58:20.830Z,20.72
2023-04-16T13:00:48.248Z,20.65
2023-04-16T13:03:16.283Z,20.63
2023-04-16T13:05:44.148Z,20.65
2023-04-16T13:08:11.750Z,20.72
2023-04-16T13:10:39.208Z,20.71
2023-04-16T13:13:06.724Z,20.69
2023-04-16T13:15:34.217Z,20.84
2023-04-16T13:18:01.842Z,21.07
2023-04-16T13:20:29.525Z,21.29
2023-04-16T13:22:57.015Z,21.46
2023-04-16T13:25:24.491Z,21.57
2023-04-16T13:27:52.972Z,21.68
2023-04-16T13:30:20.733Z,21.71
2023-04-16T13:32:48.379Z,21.66
2023-04-16T13:35:16.061Z,21.34
2023-04-16T13:37:43.549Z,21.05
2023-04-16T13:40:10.924Z,20.87
2023-04-16T13:42:38.467Z,20.59
2023-04-16T13:45:06.408Z,20.36
2023-04-16T13:47:34.674Z,20.27
2023-04-16T13:50:02.306Z,20.21
2023-04-16T13:52:29.761Z,20.16
2023-04-16T13:54:59.642Z,20.13
2023-04-16T13:57:28.906Z,20.16
2023-04-16T13:59:56.467Z,20.31
2023-04-16T14:02:26.110Z,20.43
2023-04-16T14:04:54.085Z,20.43
2023-04-16T14:07:25.791Z,20.42
2023-04-16T14:09:54.608Z,20.57
2023-04-16T14:12:22.266Z,20.55
2023-04-16T14:14:49.952Z,20.71
2023-04-16T14:17:17.438Z,20.86
2023-04-16T14:19:44.973Z,20.97
2023-04-16T14:22:12.388Z,21.10
2023-04-16T14:24:39.832Z,21.28
2023-04-16T14:27:08.232Z,21.40
2023-04-16T14:29:36.556Z,21.53
2023-04-16T14:32:04.305Z,21.32
2023-04-16T14:34:31.973Z,21.23
2023-04-16T14:36:59.528Z,21.18
2023-04-16T14:39:27.262Z,21.28
2023-04-16T14:41:54.859Z,21.44
2023-04-16T14:44:22.923Z,21.59
2023-04-16T14:46:50.594Z,21.31
2023-04-16T14:49:18.047Z,21.24
2023-04-16T14:51:46.396Z,20.99
2023-04-16T14:54:13.804Z,20.72
2023-04-16T14:56:41.718Z,20.75
2023-04-16T14:59:09.713Z,20.83
2023-04-16T15:01:39.819Z,21.02
2023-04-16T15:04:07.885Z,21.20
2023-04-16T15:06:36.038Z,21.34
2023-04-16T15:09:05.144Z,21.37
2023-04-16T15:11:32.669Z,21.26
2023-04-16T15:14:00.188Z,21.31
2023-04-16T15:16:27.661Z,21.42
2023-04-16T15:18:55.152Z,21.60
2023-04-16T15:21:22.575Z,21.61
2023-04-16T15:23:50.131Z,21.65
2023-04-16T15:26:17.564Z,21.65
2023-04-16T15:28:45.114Z,21.52
2023-04-16T15:31:12.535Z,21.52
2023-04-16T15:33:40.203Z,21.52
2023-04-16T15:36:07.659Z,21.48
2023-04-16T15:38:35.270Z,21.52
2023-04-16T15:41:02.801Z,21.58
2023-04-16T15:43:30.602Z,21.67
2023-04-16T15:45:58.266Z,21.45
2023-04-16T15:48:25.737Z,21.29
2023-04-16T15:50:54.275Z,21.33
2023-04-16T15:53:21.932Z,21.28
2023-04-16T15:55:53.801Z,21.17
2023-04-16T15:58:21.568Z,21.13
2023-04-16T16:00:50.828Z,21.01
2023-04-16T16:03:19.539Z,20.86
2023-04-16T16:05:50.891Z,20.67
2023-04-16T16:08:18.594Z,20.52
2023-04-16T16:10:46.810Z,20.42
2023-04-16T16:13:18.110Z,20.40
2023-04-16T16:15:45.811Z,20.45
2023-04-16T16:18:13.267Z,20.59
2023-04-16T16:20:40.807Z,20.64
2023-04-16T16:23:08.530Z,20.62
2023-04-16T16:25:36.203Z,20.51
2023-04-16T16:28:06.632Z,20.56
2023-04-16T16:30:34.432Z,20.48
2023-04-16T16:33:01.937Z,20.47
2023-04-16T16:35:29.539Z,20.58
2023-04-16T16:37:57.423Z,20.68
2023-04-16T16:40:25.416Z,20.70
2023-04-16T16:42:52.880Z,20.68
2023-04-16T16:45:20.722Z,20.56
2023-04-16T16:47:49.079Z,20.22
2023-04-16T16:50:16.918Z,20.06
2023-04-16T16:52:44.894Z,19.79
2023-04-16T16:55:12.594Z,19.57
2023-04-16T16:57:40.072Z,19.57
2023-04-16T17:00:14.934Z,19.40
2023-04-16T17:02:43.182Z,19.32
2023-04-16T17:05:11.176Z,19.22
2023-04-16T17:07:39.414Z,19.14
2023-04-16T17:10:07.427Z,19.10
2023-04-16T17:12:35.683Z,18.96
2023-04-16T17:15:03.235Z,18.75
2023-04-16T17:17:31.700Z,18.63
2023-04-16T17:20:01.023Z,18.57
2023-04-16T17:22:28.655Z,18.51
2023-04-16T17:24:56.189Z,18.55
2023-04-16T17:27:23.648Z,18.45
2023-04-16T17:29:51.257Z,18.35
2023-04-16T17:32:18.875Z,18.14
2023-04-16T17:34:46.324Z,18.06
2023-04-16T17:37:14.233Z,18.08
2023-04-16T17:39:41.582Z,18.03
2023-04-16T17:42:09.152Z,17.95
2023-04-16T17:44:36.769Z,17.83
2023-04-16T17:47:05.562Z,17.85
2023-04-16T17:49:33.005Z,17.82
2023-04-16T17:52:00.641Z,17.67
2023-04-16T17:54:28.261Z,17.66
2023-04-16T17:56:56.179Z,17.70
2023-04-16T17:59:23.774Z,17.68
2023-04-16T18:01:51.473Z,17.67
2023-04-16T18:04:19.423Z,17.77
2023-04-16T18:06:47.318Z,17.79
2023-04-16T18:09:15.621Z,17.71
2023-04-16T18:11:43.128Z,17.65
2023-04-16T18:14:13.390Z,17.62
2023-04-16T18:16:41.894Z,17.59
2023-04-16T18:19:09.272Z,17.43
2023-04-16T18:21:36.745Z,17.48
2023-04-16T18:24:04.323Z,17.45
2023-04-16T18:26:35.612Z,17.32
2023-04-16T18:29:04.117Z,17.25
2023-04-16T18:31:31.640Z,17.14
2023-04-16T18:33:59.402Z,16.87
2023-04-16T18:36:27.453Z,16.88
2023-04-16T18:39:02.017Z,16.70
2023-04-16T18:41:31.453Z,16.60
2023-04-16T18:43:58.959Z,16.44
2023-04-16T18:46:27.725Z,16.39
2023-04-16T18:48:55.477Z,16.22
2023-04-16T18:51:23.528Z,16.11
2023-04-16T18:53:51.508Z,16.06
2023-04-16T18:56:19.076Z,15.85
2023-04-16T18:58:47.860Z,15.76
2023-04-16T19:01:16.751Z,15.68
2023-04-16T19:03:44.312Z,15.69
2023-04-16T19:06:12.032Z,15.76
2023-04-16T19:08:39.490Z,15.56
2023-04-16T19:11:07.081Z,15.61
2023-04-16T19:13:34.544Z,15.52
2023-04-16T19:16:02.601Z,15.59
2023-04-16T19:18:30.101Z,15.44
2023-04-16T19:21:01.196Z,15.39
2023-04-16T19:23:29.195Z,15.47
2023-04-16T19:25:57.182Z,15.46
2023-04-16T19:28:25.708Z,15.32
2023-04-16T19:30:54.136Z,15.33
2023-04-16T19:33:22.021Z,15.31
2023-04-16T19:35:49.414Z,15.33
2023-04-16T19:38:16.924Z,15.37
2023-04-16T19:40:46.868Z,15.20
2023-04-16T19:43:14.569Z,15.14
2023-04-16T19:45:46.935Z,15.14
2023-04-16T19:48:14.834Z,15.15
2023-04-16T19:50:42.922Z,15.12
2023-04-16T19:53:11.741Z,15.15
2023-04-16T19:55:40.177Z,15.20
2023-04-16T19:58:08.942Z,15.13
2023-04-16T20:00:38.051Z,15.01
2023-04-16T20:03:06.081Z,14.86
2023-04-16T20:05:33.494Z,14.78
2023-04-16T20:08:01.112Z,14.75
2023-04-16T20:10:29.528Z,14.90
2023-04-16T20:12:57.026Z,14.76
2023-04-16T20:15:24.446Z,14.72
2023-04-16T20:17:52.539Z,14.60
2023-04-16T20:20:20.106Z,14.49
2023-04-16T20:22:47.657Z,14.44
2023-04-16T20:25:18.611Z,14.60
2023-04-16T20:27:46.364Z,14.56
2023-04-16T20:30:15.117Z,14.58
2023-04-16T20:32:42.709Z,14.59
2023-04-16T20:35:11.597Z,14.47
2023-04-16T20:37:39.926Z,14.36
2023-04-16T20:40:09.816Z,14.32
2023-04-16T20:42:37.377Z,14.26
2023-04-16T20:45:05.158Z,14.15
2023-04-16T20:47:34.852Z,14.24
2023-04-16T20:50:03.838Z,14.24
2023-04-16T20:52:31.519Z,14.13
2023-04-16T20:54:59.086Z,14.02
2023-04-16T20:57:28.220Z,13.96
2023-04-16T20:59:56.492Z,14.00
2023-04-16T21:02:24.594Z,14.02
2023-04-16T21:04:52.423Z,13.95
2023-04-16T21:07:19.989Z,13.96
2023-04-16T21:09:47.497Z,13.95
2023-04-16T21:12:14.943Z,13.94
2023-04-16T21:14:42.314Z,13.95
2023-04-16T21:17:09.763Z,13.91
2023-04-16T21:19:37.261Z,13.79
2023-04-16T21:22:04.863Z,13.78
2023-04-16T21:24:32.425Z,13.80
2023-04-16T21:26:59.948Z,14.02
2023-04-16T21:29:27.955Z,14.01
2023-04-16T21:31:56.127Z,13.85
2023-04-16T21:34:23.658Z,13.93
2023-04-16T21:36:51.137Z,14.02
2023-04-16T21:39:19.924Z,13.99
2023-04-16T21:41:47.868Z,13.71
2023-04-16T21:44:15.552Z,13.64
2023-04-16T21:46:42.957Z,13.60
2023-04-16T21:49:10.567Z,13.55
2023-04-16T21:51:40.403Z,13.47
2023-04-16T21:54:08.044Z,13.48
2023-04-16T21:56:35.520Z,13.59
2023-04-16T21:59:03.016Z,13.73
2023-04-16T22:01:30.642Z,13.77
2023-04-16T22:03:58.292Z,13.68
2023-04-16T22:06:27.180Z,13.65
2023-04-16T22:08:54.608Z,13.60
2023-04-16T22:11:22.630Z,13.49
2023-04-16T22:13:50.265Z,13.67
2023-04-16T22:16:17.824Z,13.63
2023-04-16T22:18:46.416Z,13.57
2023-04-16T22:21:14.076Z,13.59
2023-04-16T22:23:41.533Z,13.61
2023-04-16T22:26:09.234Z,13.58
2023-04-16T22:28:36.621Z,13.56
2023-04-16T22:31:04.332Z,13.48
2023-04-16T22:33:31.791Z,13.35
2023-04-16T22:36:00.200Z,13.38
2023-04-16T22:38:27.643Z,13.42
2023-04-16T22:40:55.140Z,13.40
2023-04-16T22:43:22.577Z,13.49
2023-04-16T22:45:50.106Z,13.42
2023-04-16T22:48:17.852Z,13.49
2023-04-16T22:50:48.670Z,13.49
2023-04-16T22:53:16.285Z,13.47
2023-04-16T22:55:43.666Z,13.55
2023-04-16T22:58:11.250Z,13.51
2023-04-16T23:00:38.977Z,13.52
2023-04-16T23:03:06.634Z,13.42
2023-04-16T23:05:34.727Z,13.44
2023-04-16T23:08:02.202Z,13.49
2023-04-16T23:10:29.616Z,13.40
2023-04-16T23:12:57.089Z,13.37
2023-04-16T23:15:24.555Z,13.28
2023-04-16T23:17:52.285Z,13.46
2023-04-16T23:20:19.957Z,13.53
2023-04-16T23:22:47.475Z,13.52
2023-04-16T23:25:14.841Z,13.66
2023-04-16T23:27:42.334Z,13.46
2023-04-16T23:30:10.143Z,13.46
2023-04-16T23:32:37.911Z,13.44
2023-04-16T23:35:05.777Z,13.45
2023-04-16T23:37:33.347Z,13.48
2023-04-16T23:40:00.958Z,13.45
2023-04-16T23:42:28.679Z,13.60
2023-04-16T23:44:56.174Z,13.60
2023-04-16T23:47:23.728Z,13.46
2023-04-16T23:49:51.192Z,13.41
2023-04-16T23:52:18.656Z,13.40
2023-04-16T23:54:45.962Z,13.42
2023-04-16T23:57:13.533Z,13.44
2023-04-16T23:59:41.009Z,13.38
